Time;durP1;ratioP1;P1;durP2;ratioP2;P2;SDS_P1;SDS_P2;PMS_P1;PMS_P2;Temp;Humidity;BMP_temperature;BMP_pressure;BME280_temperature;BME280_humidity;BME280_pressure;Samples;Min_cycle;Max_cycle;Signal;HPM_P1;HPM_P2
2021/12/18 00:00:57;;;;;;;9.80;5.40;;;6.90;99.90;;;;;;4952913;28;20453;-51
2021/12/18 00:03:23;;;;;;;9.60;5.40;;;6.90;99.90;;;;;;4951427;29;20237;-51
2021/12/18 00:05:49;;;;;;;9.93;4.97;;;7.00;99.90;;;;;;4952700;29;20417;-51
2021/12/18 00:08:14;;;;;;;9.40;4.63;;;7.00;99.90;;;;;;4952222;28;20233;-51
2021/12/18 00:10:40;;;;;;;9.00;4.73;;;7.00;99.90;;;;;;4952755;29;20546;-51
2021/12/18 00:13:06;;;;;;;8.30;4.77;;;7.00;99.90;;;;;;4952648;28;20196;-51
2021/12/18 00:15:31;;;;;;;8.53;4.50;;;7.00;99.90;;;;;;4952632;29;20601;-50
2021/12/18 00:17:57;;;;;;;6.63;4.37;;;7.00;99.90;;;;;;4952485;29;20210;-52
2021/12/18 00:20:25;;;;;;;6.40;3.90;;;6.90;99.90;;;;;;4952935;29;20209;-50
2021/12/18 00:22:52;;;;;;;7.27;4.70;;;7.00;99.90;;;;;;4952641;29;20218;-50
2021/12/18 00:25:17;;;;;;;8.07;4.73;;;6.90;99.90;;;;;;4952487;28;20414;-50
2021/12/18 00:27:43;;;;;;;8.23;4.40;;;7.00;99.90;;;;;;4952461;28;20425;-51
2021/12/18 00:30:10;;;;;;;8.50;4.63;;;6.90;99.90;;;;;;4952501;29;20198;-52
2021/12/18 00:32:36;;;;;;;9.53;4.97;;;6.90;99.90;;;;;;4952100;29;20595;-50
2021/12/18 00:35:01;;;;;;;8.90;4.87;;;7.00;99.90;;;;;;4952026;29;20441;-50
2021/12/18 00:37:27;;;;;;;8.47;4.60;;;6.90;99.90;;;;;;4952304;29;20229;-50
2021/12/18 00:39:57;;;;;;;8.53;5.00;;;6.90;99.90;;;;;;4952340;28;20222;-51
2021/12/18 00:44:49;;;;;;;8.67;5.27;;;6.90;99.90;;;;;;4952109;29;20418;-52
2021/12/18 00:47:14;;;;;;;7.60;4.40;;;6.90;99.90;;;;;;4952363;29;20193;-51
2021/12/18 00:49:40;;;;;;;5.70;3.03;;;6.90;99.90;;;;;;4952191;28;20205;-51
2021/12/18 00:52:06;;;;;;;9.13;3.63;;;6.90;99.90;;;;;;4952549;29;20812;-51
2021/12/18 00:54:32;;;;;;;5.10;3.60;;;7.00;99.90;;;;;;4952197;29;20260;-51
2021/12/18 00:56:58;;;;;;;5.50;3.57;;;7.00;99.90;;;;;;4952026;29;20476;-50
2021/12/18 00:59:24;;;;;;;7.33;3.57;;;7.00;99.90;;;;;;4951940;28;20198;-50
2021/12/18 01:01:50;;;;;;;7.60;4.30;;;6.90;99.90;;;;;;4955172;28;20787;-50
2021/12/18 01:04:15;;;;;;;7.90;4.00;;;6.90;99.90;;;;;;4955886;28;20228;-52
2021/12/18 01:06:41;;;;;;;7.27;4.43;;;6.90;99.90;;;;;;4956087;29;20212;-50
2021/12/18 01:09:07;;;;;;;12.43;5.53;;;6.90;99.90;;;;;;4956064;29;20269;-50
2021/12/18 01:11:35;;;;;;;14.57;6.47;;;6.90;99.90;;;;;;4955954;29;20555;-50
2021/12/18 01:24:42;;;;;;;23.50;10.30;;;6.90;99.90;;;;;;4955780;28;20485;-50
2021/12/18 01:27:08;;;;;;;22.73;9.37;;;7.00;99.90;;;;;;4955759;29;20516;-50
2021/12/18 01:29:33;;;;;;;27.77;9.87;;;7.00;99.90;;;;;;4956007;28;20329;-51
2021/12/18 01:31:59;;;;;;;27.60;10.17;;;7.00;99.90;;;;;;4956028;29;20196;-50
2021/12/18 01:34:24;;;;;;;27.07;11.00;;;7.00;99.90;;;;;;4955153;29;20288;-50
2021/12/18 01:36:50;;;;;;;25.17;9.87;;;6.90;99.90;;;;;;4955393;29;20683;-50
2021/12/18 01:39:15;;;;;;;30.60;10.47;;;6.90;99.90;;;;;;4955555;29;20567;-50
2021/12/18 01:42:05;;;;;;;31.27;8.90;;;6.90;99.90;;;;;;4955483;29;20194;-51
2021/12/18 01:51:16;;;;;;;19.60;6.70;;;7.00;99.90;;;;;;4955531;28;20499;-51
2021/12/18 01:52:34;;;;;;;19.33;6.47;;;6.90;99.90;;;;;;4955282;29;20439;-50
2021/12/18 01:55:00;;;;;;;18.03;6.73;;;6.90;99.90;;;;;;4955169;28;20429;-50
2021/12/18 01:57:25;;;;;;;16.17;6.03;;;6.90;99.90;;;;;;4955218;29;20257;-50
2021/12/18 01:59:51;;;;;;;21.87;6.00;;;6.90;99.90;;;;;;4955064;28;20197;-50
2021/12/18 02:02:17;;;;;;;15.10;4.00;;;7.00;99.90;;;;;;4955064;28;20248;-51
2021/12/18 02:04:43;;;;;;;13.07;5.60;;;6.90;99.90;;;;;;4954150;29;20237;-51
2021/12/18 02:07:10;;;;;;;14.63;4.97;;;6.90;99.90;;;;;;4955227;28;20417;-50
2021/12/18 02:12:26;;;;;;;12.87;4.30;;;6.90;99.90;;;;;;4954263;28;20775;-50
2021/12/18 02:20:38;;;;;;;8.77;4.43;;;7.00;99.90;;;;;;4954751;28;20225;-50
2021/12/18 02:23:05;;;;;;;15.40;4.87;;;6.90;99.90;;;;;;4954896;29;20492;-50
2021/12/18 02:25:33;;;;;;;8.40;4.20;;;7.00;99.90;;;;;;4954771;29;20426;-51
2021/12/18 02:27:58;;;;;;;13.03;5.00;;;6.90;99.90;;;;;;4954723;29;20429;-51
2021/12/18 02:30:24;;;;;;;11.80;4.90;;;7.00;99.90;;;;;;4954433;29;20422;-50
2021/12/18 02:32:51;;;;;;;8.37;3.57;;;7.00;99.90;;;;;;4954233;28;20247;-50
2021/12/18 02:35:40;;;;;;;9.20;4.90;;;7.00;99.90;;;;;;4954505;28;20425;-57
2021/12/18 02:38:12;;;;;;;7.90;3.47;;;7.00;99.90;;;;;;4954353;28;20477;-50
2021/12/18 02:43:09;;;;;;;7.13;3.60;;;7.00;99.90;;;;;;4954439;28;20425;-50
2021/12/18 02:45:35;;;;;;;8.07;3.30;;;7.00;99.90;;;;;;4954283;28;20460;-52
2021/12/18 02:48:00;;;;;;;8.30;3.23;;;7.00;99.90;;;;;;4954625;28;20578;-50
2021/12/18 02:50:26;;;;;;;5.23;2.40;;;7.00;99.90;;;;;;4953969;28;20277;-50
2021/12/18 02:52:51;;;;;;;5.40;2.03;;;7.00;99.90;;;;;;4954524;29;20343;-51
2021/12/18 02:55:17;;;;;;;7.10;2.80;;;7.00;99.90;;;;;;4954482;29;20257;-51
2021/12/18 02:57:42;;;;;;;11.10;3.00;;;7.00;99.90;;;;;;4954026;29;20240;-50
2021/12/18 03:00:09;;;;;;;12.80;3.43;;;7.00;99.90;;;;;;4954019;29;20200;-50
2021/12/18 03:02:39;;;;;;;6.67;3.33;;;7.00;99.90;;;;;;4953667;28;20213;-51
2021/12/18 03:05:08;;;;;;;8.37;3.47;;;7.00;99.90;;;;;;4954136;28;20422;-51
2021/12/18 03:07:34;;;;;;;10.53;2.93;;;7.00;99.90;;;;;;4954087;29;20457;-51
2021/12/18 03:21:36;;;;;;;14.90;4.37;;;7.10;99.90;;;;;;4954020;29;20520;-51
2021/12/18 03:25:58;;;;;;;10.47;4.40;;;7.10;99.90;;;;;;4953757;29;20422;-52
2021/12/18 03:28:24;;;;;;;11.40;4.60;;;7.10;99.90;;;;;;4953383;29;20205;-51
2021/12/18 03:30:50;;;;;;;13.90;4.40;;;7.10;99.90;;;;;;4953414;28;20417;-51
2021/12/18 03:33:15;;;;;;;13.17;4.60;;;7.10;99.90;;;;;;4953172;29;20953;-51
2021/12/18 03:35:41;;;;;;;13.00;5.60;;;7.00;99.90;;;;;;4953359;28;20208;-52
2021/12/18 03:38:09;;;;;;;15.30;5.50;;;7.00;99.90;;;;;;4953308;29;20225;-51
2021/12/18 03:40:35;;;;;;;14.93;5.03;;;7.10;99.90;;;;;;4953341;28;20189;-51
2021/12/18 03:43:00;;;;;;;13.33;5.07;;;7.10;99.90;;;;;;4953067;28;20426;-50
2021/12/18 03:45:26;;;;;;;11.40;5.00;;;7.10;99.90;;;;;;4953351;28;20193;-51
2021/12/18 03:47:52;;;;;;;9.10;3.90;;;7.10;99.90;;;;;;4952971;29;20198;-52
2021/12/18 03:50:18;;;;;;;10.17;3.87;;;7.10;99.90;;;;;;4952922;29;20221;-51
2021/12/18 03:52:44;;;;;;;10.83;3.63;;;7.10;99.90;;;;;;4953194;28;20428;-51
2021/12/18 03:55:10;;;;;;;10.70;3.23;;;7.10;99.90;;;;;;4953147;28;20508;-51
2021/12/18 03:57:35;;;;;;;5.50;3.07;;;7.20;99.90;;;;;;4953416;29;20994;-51
2021/12/18 04:00:01;;;;;;;7.40;3.60;;;7.20;99.90;;;;;;4952986;28;20197;-51
2021/12/18 04:02:26;;;;;;;8.47;3.80;;;7.10;99.90;;;;;;4952657;29;20313;-51
2021/12/18 04:04:52;;;;;;;10.27;4.00;;;7.10;99.90;;;;;;4952916;28;20268;-51
2021/12/18 04:07:19;;;;;;;9.50;3.70;;;7.10;99.90;;;;;;4952940;29;20273;-51
2021/12/18 04:09:47;;;;;;;8.57;3.60;;;7.20;99.90;;;;;;4952748;29;20204;-51
2021/12/18 04:12:12;;;;;;;10.00;3.73;;;7.20;99.90;;;;;;4952452;29;20931;-52
2021/12/18 04:14:38;;;;;;;7.47;3.13;;;7.20;99.90;;;;;;4952635;29;20414;-51
2021/12/18 04:17:03;;;;;;;12.07;4.23;;;7.20;99.90;;;;;;4952592;28;20707;-52
2021/12/18 04:19:29;;;;;;;9.50;3.40;;;7.20;99.90;;;;;;4953028;28;20582;-51
2021/12/18 04:21:54;;;;;;;11.53;3.93;;;7.20;99.90;;;;;;4952580;29;20190;-52
2021/12/18 04:24:20;;;;;;;7.33;3.60;;;7.20;99.90;;;;;;4952517;29;20221;-52
2021/12/18 04:26:45;;;;;;;10.23;4.03;;;7.20;99.90;;;;;;4952454;29;20273;-52
2021/12/18 04:29:11;;;;;;;10.50;4.10;;;7.20;99.90;;;;;;4952831;28;20186;-50
2021/12/18 04:31:38;;;;;;;8.33;4.23;;;7.20;99.90;;;;;;4952395;29;20641;-51
2021/12/18 04:34:04;;;;;;;11.23;4.13;;;7.30;99.90;;;;;;4952190;28;20209;-50
2021/12/18 04:36:30;;;;;;;10.17;4.70;;;7.20;99.90;;;;;;4952031;28;20888;-51
2021/12/18 04:38:56;;;;;;;11.40;5.03;;;7.20;99.90;;;;;;4952258;28;20833;-51
2021/12/18 04:41:36;;;;;;;11.50;5.40;;;7.30;99.90;;;;;;4952331;29;20818;-51
2021/12/18 04:44:02;;;;;;;12.93;5.63;;;7.30;99.90;;;;;;4952245;28;20211;-51
2021/12/18 04:46:28;;;;;;;9.60;4.43;;;7.20;99.90;;;;;;4952257;29;20455;-51
2021/12/18 04:48:53;;;;;;;11.07;4.77;;;7.30;99.90;;;;;;4952186;29;20541;-51
2021/12/18 04:51:19;;;;;;;11.27;5.00;;;7.30;99.90;;;;;;4952217;29;20683;-52
2021/12/18 04:53:45;;;;;;;9.10;4.50;;;7.30;99.90;;;;;;4952430;29;20198;-51
2021/12/18 04:56:10;;;;;;;6.70;3.93;;;7.20;99.90;;;;;;4951960;28;20196;-51
2021/12/18 04:58:36;;;;;;;11.03;4.67;;;7.20;99.90;;;;;;4952083;28;20316;-51
2021/12/18 05:01:01;;;;;;;9.80;3.90;;;7.30;99.90;;;;;;4952172;29;20189;-52
2021/12/18 05:03:27;;;;;;;6.57;3.67;;;7.30;99.90;;;;;;4951534;28;20607;-52
2021/12/18 05:05:52;;;;;;;9.90;4.83;;;7.30;99.90;;;;;;4952324;29;20220;-51
2021/12/18 05:08:18;;;;;;;6.67;3.70;;;7.30;99.90;;;;;;4952235;29;20190;-52
2021/12/18 05:10:44;;;;;;;10.43;4.63;;;7.30;99.90;;;;;;4952105;29;20532;-52
2021/12/18 05:13:09;;;;;;;6.03;3.90;;;7.30;99.90;;;;;;4952104;29;20198;-52
2021/12/18 05:15:35;;;;;;;10.13;3.20;;;7.30;99.90;;;;;;4952305;29;20202;-50
2021/12/18 05:18:00;;;;;;;4.40;2.40;;;7.20;99.90;;;;;;4952325;28;20264;-51
2021/12/18 05:20:26;;;;;;;4.23;2.53;;;7.20;99.90;;;;;;4951908;28;20212;-52
2021/12/18 05:22:52;;;;;;;4.60;2.27;;;7.20;99.90;;;;;;4951962;29;20627;-51
2021/12/18 05:25:17;;;;;;;3.10;2.00;;;7.10;99.90;;;;;;4951674;29;20648;-52
2021/12/18 05:27:43;;;;;;;3.87;2.57;;;7.10;99.90;;;;;;4951940;29;20194;-51
2021/12/18 05:30:09;;;;;;;3.33;2.23;;;7.10;99.90;;;;;;4951862;28;20230;-52
2021/12/18 05:32:35;;;;;;;2.60;1.83;;;7.10;99.90;;;;;;4951757;29;20204;-51
2021/12/18 05:35:01;;;;;;;4.40;2.40;;;7.10;99.90;;;;;;4951472;29;20908;-52
2021/12/18 05:37:48;;;;;;;2.73;1.97;;;7.10;99.90;;;;;;4951729;29;20217;-52
2021/12/18 05:40:17;;;;;;;5.60;1.47;;;7.10;99.90;;;;;;4951593;29;20256;-52
2021/12/18 05:42:44;;;;;;;7.70;1.70;;;7.00;99.90;;;;;;4951801;28;20500;-52
2021/12/18 05:45:10;;;;;;;5.90;1.73;;;7.00;99.90;;;;;;4951786;28;20489;-52
2021/12/18 05:47:36;;;;;;;2.70;1.70;;;7.00;99.90;;;;;;4952546;28;20436;-51
2021/12/18 05:50:01;;;;;;;1.90;1.50;;;7.00;99.90;;;;;;4955264;29;20468;-52
2021/12/18 05:52:27;;;;;;;4.70;1.63;;;6.90;99.90;;;;;;4955194;28;20189;-51
2021/12/18 05:54:53;;;;;;;2.03;1.60;;;6.90;99.90;;;;;;4955152;28;20216;-51
2021/12/18 05:57:19;;;;;;;1.87;1.57;;;6.90;99.90;;;;;;4955231;29;20830;-51
2021/12/18 05:59:44;;;;;;;3.97;1.73;;;7.00;99.90;;;;;;4955318;29;20882;-51
2021/12/18 06:02:10;;;;;;;2.03;1.80;;;6.90;99.90;;;;;;4955305;28;20284;-51
2021/12/18 06:04:36;;;;;;;1.53;1.40;;;6.90;99.90;;;;;;4954615;29;20553;-51
2021/12/18 06:07:06;;;;;;;1.50;1.40;;;7.00;99.90;;;;;;4955086;29;20416;-52
2021/12/18 06:09:35;;;;;;;1.73;1.20;;;6.90;99.90;;;;;;4955096;28;20196;-51
2021/12/18 06:12:01;;;;;;;1.40;1.30;;;6.90;99.90;;;;;;4955009;29;20472;-52
2021/12/18 06:14:30;;;;;;;1.30;1.07;;;6.90;99.90;;;;;;4955213;28;20443;-52
2021/12/18 06:16:55;;;;;;;1.10;1.00;;;6.90;99.90;;;;;;4954825;28;20857;-51
2021/12/18 06:19:21;;;;;;;1.63;1.00;;;6.90;99.90;;;;;;4955039;28;20422;-52
2021/12/18 06:21:47;;;;;;;1.00;0.90;;;6.80;99.90;;;;;;4954963;29;20194;-51
2021/12/18 06:24:13;;;;;;;1.73;1.00;;;6.90;99.90;;;;;;4954504;29;20480;-51
2021/12/18 06:26:39;;;;;;;1.97;1.13;;;6.90;99.90;;;;;;4954662;28;20456;-52
2021/12/18 06:29:04;;;;;;;1.30;1.20;;;6.90;99.90;;;;;;4954591;29;20599;-51
2021/12/18 06:31:31;;;;;;;7.60;1.40;;;6.90;99.90;;;;;;4954776;28;20754;-51
2021/12/18 06:33:56;;;;;;;4.00;1.60;;;6.90;99.90;;;;;;4954346;29;20190;-51
2021/12/18 06:36:22;;;;;;;4.73;1.90;;;6.90;99.90;;;;;;4954417;28;20488;-51
2021/12/18 06:38:48;;;;;;;2.50;1.70;;;6.90;99.90;;;;;;4954758;29;20213;-51
2021/12/18 06:41:14;;;;;;;5.20;2.50;;;6.90;99.90;;;;;;4954388;29;20211;-51
2021/12/18 06:43:40;;;;;;;3.00;2.30;;;6.90;99.90;;;;;;4954381;29;20414;-51
2021/12/18 06:46:06;;;;;;;6.07;2.50;;;6.90;99.90;;;;;;4954278;29;20185;-51
2021/12/18 06:48:32;;;;;;;2.97;2.20;;;6.90;99.90;;;;;;4954276;29;20665;-51
2021/12/18 06:50:58;;;;;;;2.60;1.90;;;6.90;99.90;;;;;;4954228;28;20465;-51
2021/12/18 06:53:23;;;;;;;3.30;2.10;;;6.90;99.90;;;;;;4954058;29;20436;-52
2021/12/18 06:55:49;;;;;;;2.20;2.00;;;6.80;99.90;;;;;;4954115;29;20695;-52
2021/12/18 06:58:14;;;;;;;3.00;1.90;;;6.90;99.90;;;;;;4953231;28;20702;-51
2021/12/18 07:00:40;;;;;;;6.70;2.70;;;6.80;99.90;;;;;;4954342;29;20682;-52
2021/12/18 07:03:06;;;;;;;5.53;3.10;;;6.80;99.90;;;;;;4954508;28;20232;-51
2021/12/18 07:05:31;;;;;;;5.77;3.50;;;6.80;99.90;;;;;;4954296;29;20174;-52
2021/12/18 07:07:57;;;;;;;5.50;3.37;;;6.80;99.90;;;;;;4953718;29;20221;-51
2021/12/18 07:10:22;;;;;;;7.80;3.60;;;6.80;99.90;;;;;;4952516;29;20656;-51
2021/12/18 07:12:48;;;;;;;3.53;2.40;;;6.80;99.90;;;;;;4953866;29;20190;-51
2021/12/18 07:15:15;;;;;;;3.73;2.33;;;6.80;99.90;;;;;;4953923;29;20193;-51
2021/12/18 07:17:41;;;;;;;2.50;1.67;;;6.80;99.90;;;;;;4953736;28;20221;-50
2021/12/18 07:20:08;;;;;;;1.80;1.57;;;6.80;99.90;;;;;;4953658;29;20806;-52
2021/12/18 07:22:34;;;;;;;2.17;1.90;;;6.90;99.90;;;;;;4953521;29;20676;-51
2021/12/18 07:25:00;;;;;;;4.80;1.77;;;6.90;99.90;;;;;;4953662;29;20428;-51
2021/12/18 07:27:25;;;;;;;3.80;2.07;;;6.90;99.90;;;;;;4953677;29;20609;-51
2021/12/18 07:29:51;;;;;;;7.10;2.27;;;6.90;99.90;;;;;;4953056;28;20576;-51
2021/12/18 07:32:16;;;;;;;4.20;2.57;;;6.80;99.90;;;;;;4953747;29;20190;-51
2021/12/18 07:34:42;;;;;;;5.80;2.37;;;6.90;99.90;;;;;;4953328;29;20237;-51
2021/12/18 07:37:08;;;;;;;5.63;2.80;;;6.90;99.90;;;;;;4952960;29;20676;-53
2021/12/18 07:39:33;;;;;;;7.60;3.43;;;6.90;99.90;;;;;;4953301;29;20236;-51
2021/12/18 07:41:59;;;;;;;9.00;4.60;;;6.90;99.90;;;;;;4951914;28;20190;-52
2021/12/18 07:44:25;;;;;;;9.60;4.50;;;6.90;99.90;;;;;;4953435;29;20265;-51
2021/12/18 07:46:50;;;;;;;7.63;4.80;;;6.90;99.90;;;;;;4953561;29;20699;-51
2021/12/18 07:49:16;;;;;;;12.90;5.00;;;6.90;99.90;;;;;;4953260;29;20747;-52
2021/12/18 07:51:41;;;;;;;10.93;6.00;;;6.90;99.90;;;;;;4952950;28;20230;-51
2021/12/18 07:54:07;;;;;;;13.57;6.10;;;6.90;99.90;;;;;;4953012;28;20265;-52
2021/12/18 07:56:34;;;;;;;11.33;5.30;;;7.00;99.90;;;;;;4953054;28;20194;-51
2021/12/18 07:59:00;;;;;;;8.60;4.70;;;7.10;99.90;;;;;;4952677;29;20225;-51
2021/12/18 08:01:26;;;;;;;7.63;4.17;;;7.00;99.90;;;;;;4952965;29;20993;-51
2021/12/18 08:03:51;;;;;;;6.20;4.10;;;7.00;99.90;;;;;;4952734;28;20501;-51
2021/12/18 08:06:20;;;;;;;9.87;4.00;;;7.00;99.90;;;;;;4952808;29;20277;-52
2021/12/18 08:08:46;;;;;;;5.60;3.00;;;7.00;99.90;;;;;;4952815;29;20567;-53
2021/12/18 08:11:11;;;;;;;5.33;2.70;;;7.00;99.90;;;;;;4952126;28;20939;-51
2021/12/18 08:13:37;;;;;;;4.33;3.03;;;7.00;99.90;;;;;;4952772;29;20464;-51
2021/12/18 08:16:03;;;;;;;7.40;3.00;;;7.00;99.90;;;;;;4952676;29;20217;-52
2021/12/18 08:18:28;;;;;;;6.53;3.80;;;7.00;99.90;;;;;;4952821;29;20275;-50
2021/12/18 08:20:54;;;;;;;7.50;3.83;;;7.10;99.90;;;;;;4951416;29;20457;-52
2021/12/18 08:23:20;;;;;;;11.00;4.30;;;7.10;99.90;;;;;;4952570;29;20186;-52
2021/12/18 08:25:46;;;;;;;7.30;3.80;;;7.10;99.90;;;;;;4952748;29;20192;-51
2021/12/18 08:28:11;;;;;;;7.00;4.53;;;7.10;99.90;;;;;;4952323;29;20252;-51
2021/12/18 08:30:38;;;;;;;12.73;5.13;;;7.10;99.90;;;;;;4952772;28;20421;-52
2021/12/18 08:33:05;;;;;;;12.60;5.40;;;7.20;99.90;;;;;;4952859;29;20678;-52
2021/12/18 08:35:32;;;;;;;11.40;5.47;;;7.10;99.90;;;;;;4952854;28;20433;-51
2021/12/18 08:37:59;;;;;;;10.47;5.50;;;7.10;99.90;;;;;;4952605;29;20543;-51
2021/12/18 08:40:26;;;;;;;10.60;5.73;;;7.10;99.90;;;;;;4952546;28;20496;-51
2021/12/18 08:42:52;;;;;;;11.63;5.30;;;7.20;99.90;;;;;;4952859;28;20948;-52
2021/12/18 08:45:18;;;;;;;12.37;5.13;;;7.20;99.90;;;;;;4952538;29;20877;-51
2021/12/18 08:47:43;;;;;;;11.07;4.60;;;7.20;99.90;;;;;;4952248;29;20507;-52
2021/12/18 08:50:13;;;;;;;5.43;3.13;;;7.20;99.90;;;;;;4952156;29;20707;-51
2021/12/18 08:52:38;;;;;;;7.17;3.77;;;7.20;99.90;;;;;;4952527;29;20537;-51
2021/12/18 08:55:05;;;;;;;6.80;3.63;;;7.20;99.90;;;;;;4952259;28;20418;-51
2021/12/18 08:57:31;;;;;;;7.70;3.17;;;7.20;99.90;;;;;;4951915;29;20228;-51
2021/12/18 08:59:56;;;;;;;6.47;3.30;;;7.20;99.90;;;;;;4952264;29;20425;-52
2021/12/18 09:02:22;;;;;;;6.10;3.13;;;7.20;99.90;;;;;;4952221;29;20189;-51
2021/12/18 09:04:48;;;;;;;5.70;3.50;;;7.20;99.90;;;;;;4952191;28;20190;-51
2021/12/18 09:07:14;;;;;;;6.87;3.47;;;7.10;99.90;;;;;;4952186;29;20436;-51
2021/12/18 09:09:40;;;;;;;7.00;3.50;;;7.20;99.90;;;;;;4952117;29;20236;-51
2021/12/18 09:12:08;;;;;;;5.33;3.27;;;7.10;99.90;;;;;;4952194;29;20194;-52
2021/12/18 09:14:34;;;;;;;5.17;3.13;;;7.20;99.90;;;;;;4952043;29;20429;-51
2021/12/18 09:17:00;;;;;;;4.23;3.20;;;7.10;99.90;;;;;;4951920;29;20952;-52
2021/12/18 09:19:26;;;;;;;6.07;2.10;;;7.20;99.90;;;;;;4952044;29;20198;-53
2021/12/18 09:21:51;;;;;;;2.40;1.40;;;7.10;99.90;;;;;;4953326;28;20559;-52
2021/12/18 09:24:17;;;;;;;3.17;1.80;;;7.10;99.90;;;;;;4955886;29;20338;-52
2021/12/18 09:26:42;;;;;;;1.60;1.50;;;7.10;99.90;;;;;;4955552;28;20185;-51
2021/12/18 09:29:08;;;;;;;2.77;2.17;;;7.10;99.90;;;;;;4955786;29;20244;-51
2021/12/18 09:31:34;;;;;;;2.97;2.30;;;7.20;99.90;;;;;;4955701;29;20205;-52
2021/12/18 09:33:59;;;;;;;4.60;2.73;;;7.20;99.90;;;;;;4955752;28;20202;-51
2021/12/18 09:36:25;;;;;;;4.03;3.20;;;7.20;99.90;;;;;;4955840;29;20194;-52
2021/12/18 09:38:50;;;;;;;5.97;3.73;;;7.20;99.90;;;;;;4955693;29;20715;-51
2021/12/18 09:41:16;;;;;;;5.30;3.70;;;7.20;99.90;;;;;;4955579;29;20190;-51
2021/12/18 09:43:42;;;;;;;5.83;3.70;;;7.20;99.90;;;;;;4955458;29;20255;-52
2021/12/18 09:46:11;;;;;;;7.03;3.87;;;7.20;99.90;;;;;;4955283;29;20190;-51
2021/12/18 09:48:38;;;;;;;5.23;3.63;;;7.30;99.90;;;;;;4954914;29;20206;-52
2021/12/18 09:51:08;;;;;;;12.40;4.50;;;7.30;99.90;;;;;;4953806;29;20477;-51
2021/12/18 09:53:35;;;;;;;5.73;3.57;;;7.30;99.90;;;;;;4954889;28;20449;-51
2021/12/18 09:56:02;;;;;;;13.10;3.93;;;7.40;99.90;;;;;;4955398;29;20763;-52
2021/12/18 09:58:28;;;;;;;6.53;3.80;;;7.40;99.90;;;;;;4954628;28;20571;-51
2021/12/18 10:00:53;;;;;;;6.60;3.30;;;7.50;99.90;;;;;;4953797;29;20552;-51
2021/12/18 10:03:19;;;;;;;6.77;3.47;;;7.50;99.90;;;;;;4954676;29;20234;-52
2021/12/18 10:05:44;;;;;;;8.23;2.90;;;7.50;99.90;;;;;;4954342;29;20288;-52
2021/12/18 10:08:14;;;;;;;5.17;2.80;;;7.50;99.90;;;;;;4955669;29;20262;-51
2021/12/18 10:11:02;;;;;;;10.37;3.37;;;7.50;99.90;;;;;;4955728;29;20300;-51
2021/12/18 10:13:27;;;;;;;7.17;3.40;;;7.50;99.90;;;;;;4955920;29;20551;-52
2021/12/18 10:16:07;;;;;;;9.83;3.50;;;7.60;99.90;;;;;;4955159;29;20477;-51
2021/12/18 10:18:33;;;;;;;7.67;3.37;;;7.60;99.90;;;;;;4955385;28;20222;-52
2021/12/18 10:21:29;;;;;;;6.37;3.23;;;7.60;99.90;;;;;;4955438;29;20421;-52
2021/12/18 10:24:11;;;;;;;16.57;5.87;;;7.60;99.90;;;;;;4945810;29;20198;-52
2021/12/18 10:26:42;;;;;;;9.60;4.40;;;7.60;99.90;;;;;;4955455;29;20413;-52
2021/12/18 10:29:24;;;;;;;13.10;4.40;;;7.70;99.90;;;;;;4954146;29;20524;-51
2021/12/18 10:31:50;;;;;;;13.10;4.30;;;7.70;99.90;;;;;;4954119;29;20441;-52
2021/12/18 10:34:23;;;;;;;11.53;4.27;;;7.70;99.90;;;;;;4954494;28;20448;-52
2021/12/18 10:37:07;;;;;;;11.63;5.23;;;7.70;99.90;;;;;;4953455;28;20205;-51
2021/12/18 10:39:39;;;;;;;14.33;6.30;;;7.80;99.90;;;;;;4954406;29;20429;-52
2021/12/18 10:42:28;;;;;;;16.27;5.33;;;7.80;99.90;;;;;;4954868;28;20516;-52
2021/12/18 10:45:19;;;;;;;19.60;6.30;;;7.80;99.90;;;;;;4942383;28;20515;-52
2021/12/18 10:48:05;;;;;;;13.07;6.10;;;7.80;99.90;;;;;;4954822;29;20440;-52
2021/12/18 10:50:49;;;;;;;11.33;5.50;;;7.80;99.90;;;;;;4954689;28;20500;-52
2021/12/18 10:53:20;;;;;;;10.73;5.40;;;7.80;99.90;;;;;;4954277;28;20426;-51
2021/12/18 10:55:51;;;;;;;14.53;6.70;;;7.80;99.90;;;;;;4955153;28;20409;-52
2021/12/18 10:58:38;;;;;;;17.33;7.27;;;7.90;99.90;;;;;;4953148;29;20528;-52
2021/12/18 11:01:07;;;;;;;14.97;5.80;;;7.90;99.90;;;;;;4955193;29;20577;-52
2021/12/18 11:03:38;;;;;;;12.10;5.63;;;7.90;99.90;;;;;;4956035;29;20409;-52
2021/12/18 11:06:09;;;;;;;18.17;6.47;;;8.00;99.90;;;;;;4943787;29;20625;-51
2021/12/18 11:08:52;;;;;;;15.23;6.50;;;8.00;99.90;;;;;;4940843;29;20428;-52
2021/12/18 11:14:01;;;;;;;17.60;6.27;;;8.00;99.90;;;;;;4953934;29;20401;-51
2021/12/18 11:16:28;;;;;;;16.80;7.40;;;8.00;99.90;;;;;;4935479;29;20411;-51
2021/12/18 11:18:55;;;;;;;21.33;7.83;;;8.10;99.90;;;;;;4936469;29;20478;-52
2021/12/18 11:21:23;;;;;;;25.07;6.47;;;8.20;99.90;;;;;;4954276;28;20433;-52
2021/12/18 11:23:57;;;;;;;16.50;5.97;;;8.20;99.90;;;;;;4953927;29;20943;-51
2021/12/18 11:26:23;;;;;;;23.83;6.70;;;8.20;99.90;;;;;;4953780;28;20437;-52
2021/12/18 11:28:50;;;;;;;21.73;5.97;;;8.30;99.90;;;;;;4954306;29;20460;-52
2021/12/18 11:31:17;;;;;;;14.33;5.03;;;8.40;99.90;;;;;;4953223;28;21031;-52
2021/12/18 11:33:43;;;;;;;21.53;5.60;;;8.40;99.90;;;;;;4954056;28;20440;-52
2021/12/18 11:36:09;;;;;;;22.53;6.47;;;8.40;99.90;;;;;;4953701;29;20433;-52
2021/12/18 11:38:37;;;;;;;15.10;6.17;;;8.50;99.90;;;;;;4954201;29;20233;-52
2021/12/18 11:41:03;;;;;;;17.03;5.83;;;8.50;99.90;;;;;;4953756;29;20437;-51
2021/12/18 11:43:37;;;;;;;19.67;5.00;;;8.40;99.90;;;;;;4953647;29;20437;-52
2021/12/18 11:46:33;;;;;;;25.33;5.27;;;8.50;99.90;;;;;;4952986;28;20181;-52
2021/12/18 11:49:04;;;;;;;14.67;4.50;;;8.50;99.90;;;;;;4953640;28;20437;-51
2021/12/18 11:51:31;;;;;;;22.13;6.70;;;8.50;99.90;;;;;;4953255;28;20468;-51
2021/12/18 11:53:57;;;;;;;17.60;5.43;;;8.60;99.90;;;;;;4953705;29;20433;-53
2021/12/18 11:56:24;;;;;;;14.07;5.30;;;8.60;99.90;;;;;;4953134;29;20452;-52
2021/12/18 11:58:50;;;;;;;15.27;5.20;;;8.60;99.90;;;;;;4952489;28;20504;-52
2021/12/18 12:01:21;;;;;;;16.73;5.20;;;8.60;99.90;;;;;;4951692;28;20469;-51
2021/12/18 12:03:52;;;;;;;13.67;4.40;;;8.60;99.90;;;;;;4953558;28;20481;-52
2021/12/18 12:06:36;;;;;;;20.30;5.77;;;8.70;99.90;;;;;;4955810;28;20531;-52
2021/12/18 12:09:32;;;;;;;25.60;6.10;;;8.70;99.90;;;;;;4952566;28;20437;-51
2021/12/18 12:12:07;;;;;;;22.27;6.53;;;8.70;99.90;;;;;;4957851;28;20417;-51
2021/12/18 12:14:40;;;;;;;17.07;5.30;;;8.80;99.90;;;;;;4959419;28;20435;-52
2021/12/18 12:17:07;;;;;;;24.80;6.97;;;8.80;99.90;;;;;;4953146;28;20548;-52
2021/12/18 12:19:36;;;;;;;17.00;5.80;;;8.80;99.90;;;;;;4955527;28;20422;-52
2021/12/18 12:22:08;;;;;;;31.07;6.97;;;8.80;99.90;;;;;;4950113;28;21245;-52
2021/12/18 12:24:54;;;;;;;13.67;5.80;;;8.80;99.90;;;;;;4955849;28;20452;-52
2021/12/18 12:27:31;;;;;;;21.10;6.03;;;8.90;99.90;;;;;;4956519;28;20449;-55
2021/12/18 12:29:59;;;;;;;16.13;6.87;;;8.90;99.90;;;;;;4961169;28;20465;-52
2021/12/18 12:32:25;;;;;;;13.30;6.20;;;9.00;99.90;;;;;;4952935;28;20442;-52
2021/12/18 12:35:05;;;;;;;17.27;6.77;;;9.00;99.90;;;;;;4953209;29;20888;-51
2021/12/18 12:37:43;;;;;;;26.67;6.33;;;9.00;99.90;;;;;;4952755;28;20464;-53
2021/12/18 12:40:14;;;;;;;25.13;8.67;;;9.10;99.90;;;;;;4951907;28;20448;-51
2021/12/18 12:43:00;;;;;;;15.60;5.70;;;9.10;99.90;;;;;;4953036;29;20453;-52
2021/12/18 12:45:38;;;;;;;20.33;6.63;;;9.10;99.90;;;;;;4952738;29;20475;-51
2021/12/18 12:48:04;;;;;;;20.60;6.60;;;9.10;99.90;;;;;;4952621;29;20793;-51
2021/12/18 12:50:32;;;;;;;23.13;6.10;;;9.20;99.90;;;;;;4953018;29;20480;-52
2021/12/18 12:53:01;;;;;;;18.93;6.40;;;9.20;99.90;;;;;;4952653;29;20491;-52
2021/12/18 12:55:30;;;;;;;21.10;6.23;;;9.20;99.90;;;;;;4952591;29;20447;-50
2021/12/18 12:58:01;;;;;;;16.47;6.63;;;9.30;99.90;;;;;;4951810;28;20572;-52
2021/12/18 13:00:27;;;;;;;17.47;6.33;;;9.30;99.90;;;;;;4953025;28;20436;-52
2021/12/18 13:02:54;;;;;;;18.57;6.97;;;9.30;99.90;;;;;;4952727;28;20430;-52
2021/12/18 13:05:21;;;;;;;21.17;6.40;;;9.50;99.90;;;;;;4952537;29;20277;-52
2021/12/18 13:07:49;;;;;;;18.97;5.73;;;9.70;99.90;;;;;;4952442;28;20793;-51
2021/12/18 13:10:20;;;;;;;13.93;5.00;;;9.90;99.90;;;;;;4952978;29;20421;-52
2021/12/18 13:12:52;;;;;;;23.23;6.10;;;10.10;99.90;;;;;;4952391;29;20946;-51
2021/12/18 13:15:18;;;;;;;13.50;5.07;;;10.30;95.30;;;;;;4952557;29;20437;-52
2021/12/18 13:17:44;;;;;;;32.60;5.17;;;10.60;73.60;;;;;;4951896;28;20464;-51
2021/12/18 13:20:10;;;;;;;18.83;4.13;;;11.20;5.00;;;;;;4952884;29;20770;-51
2021/12/18 13:22:36;;;;;;;24.70;5.67;;;11.90;1.00;;;;;;4952398;29;20540;-51
2021/12/18 13:25:12;;;;;;;13.70;4.57;;;13.00;1.00;;;;;;4952163;29;20715;-52
2021/12/18 13:27:42;;;;;;;12.93;4.10;;;13.90;1.00;;;;;;4952304;28;20503;-51
2021/12/18 13:30:17;;;;;;;18.63;4.30;;;14.20;99.90;;;;;;4952595;28;20418;-52
2021/12/18 13:33:00;;;;;;;17.57;3.90;;;13.50;99.90;;;;;;4952200;29;20465;-52
2021/12/18 13:35:28;;;;;;;23.70;4.97;;;12.50;99.90;;;;;;4952615;28;20757;-52
2021/12/18 13:38:01;;;;;;;15.80;3.67;;;11.70;1.00;;;;;;4952225;28;21288;-52
2021/12/18 13:40:29;;;;;;;16.97;4.97;;;11.30;1.00;;;;;;4952540;29;20417;-52
2021/12/18 13:43:10;;;;;;;32.87;4.30;;;10.80;99.90;;;;;;4952116;28;20912;-52